createdAt,value
2019-01-05T00:00:31.862Z,62.47
2019-01-05T00:03:20.243Z,52.67
2019-01-05T00:06:07.214Z,58.87
2019-01-05T00:09:01.634Z,52.43
2019-01-05T00:11:50.071Z,52.50
2019-01-05T00:14:44.228Z,46.00
2019-01-05T00:17:36.022Z,41.53
2019-01-05T00:20:23.512Z,44.03
2019-01-05T00:23:07.911Z,40.27
2019-01-05T00:25:55.018Z,38.63
2019-01-05T00:28:43.966Z,44.67
2019-01-05T00:31:35.518Z,39.20
2019-01-05T00:35:03.946Z,39.83
2019-01-05T00:38:12.372Z,36.03
2019-01-05T00:41:01.909Z,35.23
2019-01-05T00:43:55.088Z,36.27
2019-01-05T00:46:44.164Z,37.27
2019-01-05T00:49:29.546Z,35.00
2019-01-05T00:52:19.230Z,36.97
2019-01-05T00:55:11.866Z,39.23
2019-01-05T00:57:59.383Z,32.23
2019-01-05T01:00:46.785Z,30.43
2019-01-05T01:03:35.184Z,33.27
2019-01-05T01:06:28.206Z,33.53
2019-01-05T01:09:08.309Z,30.77
2019-01-05T01:12:08.278Z,28.03
2019-01-05T01:15:02.746Z,28.53
2019-01-05T01:17:47.430Z,35.00
2019-01-05T01:20:38.642Z,25.23
2019-01-05T01:23:32.920Z,26.50
2019-01-05T01:26:24.870Z,34.27
2019-01-05T01:29:19.520Z,32.70
2019-01-05T01:32:23.491Z,28.40
2019-01-05T01:35:05.561Z,30.80
2019-01-05T01:38:28.731Z,34.20
2019-01-05T01:41:16.864Z,31.30
2019-01-05T01:44:11.932Z,27.50
2019-01-05T01:47:18.925Z,32.93
2019-01-05T01:50:19.552Z,33.83
2019-01-05T01:53:11.212Z,29.90
2019-01-05T01:56:01.280Z,31.60
2019-01-05T01:58:53.961Z,29.50
2019-01-05T02:01:49.839Z,27.83
2019-01-05T02:04:44.735Z,34.73
2019-01-05T02:07:32.091Z,32.27
2019-01-05T02:10:30.803Z,26.30
2019-01-05T02:13:29.624Z,36.00
2019-01-05T02:16:24.402Z,34.23
2019-01-05T02:19:28.281Z,34.13
2019-01-05T02:23:16.317Z,29.47
2019-01-05T02:26:25.170Z,29.97
2019-01-05T02:30:12.435Z,37.57
2019-01-05T02:33:34.942Z,32.00
2019-01-05T02:36:58.958Z,30.87
2019-01-05T02:40:42.475Z,26.30
2019-01-05T02:44:11.525Z,32.13
2019-01-05T02:47:52.529Z,33.13
2019-01-05T02:51:26.831Z,33.70
2019-01-05T02:55:00.597Z,34.50
2019-01-05T02:58:04.547Z,38.83
2019-01-05T03:01:41.778Z,36.30
2019-01-05T03:05:19.622Z,39.07
2019-01-05T03:08:36.314Z,35.43
2019-01-05T03:12:16.753Z,47.83
2019-01-05T03:15:44.101Z,41.10
2019-01-05T03:19:20.114Z,42.73
2019-01-05T03:22:43.557Z,36.00
2019-01-05T03:26:13.447Z,46.47
2019-01-05T03:29:38.341Z,36.90
2019-01-05T03:32:59.114Z,42.33
2019-01-05T03:36:28.503Z,43.23
2019-01-05T03:39:45.145Z,42.63
2019-01-05T03:43:16.549Z,44.73
2019-01-05T03:46:44.924Z,37.77
2019-01-05T03:50:08.070Z,43.80
2019-01-05T03:53:32.197Z,40.97
2019-01-05T03:56:53.690Z,36.53
2019-01-05T04:00:06.068Z,38.03
2019-01-05T04:03:49.167Z,36.53
2019-01-05T04:07:38.424Z,38.40
2019-01-05T04:11:09.782Z,34.90
2019-01-05T04:14:33.813Z,35.67
2019-01-05T04:18:07.796Z,33.37
2019-01-05T04:21:30.862Z,29.00
2019-01-05T04:24:58.958Z,29.10
2019-01-05T04:28:41.270Z,29.00
2019-01-05T04:32:23.830Z,26.13
2019-01-05T04:35:43.606Z,28.70
2019-01-05T04:39:10.746Z,25.43
2019-01-05T04:42:32.012Z,30.47
2019-01-05T04:46:16.561Z,29.97
2019-01-05T04:49:45.368Z,29.37
2019-01-05T04:53:47.764Z,31.60
2019-01-05T04:57:13.195Z,26.87
2019-01-05T05:00:48.566Z,27.60
2019-01-05T05:04:15.265Z,25.90
2019-01-05T05:07:59.247Z,22.37
2019-01-05T05:11:47.265Z,27.67
2019-01-05T05:15:12.543Z,30.17
2019-01-05T05:18:19.292Z,23.50
2019-01-05T05:21:42.945Z,25.17
2019-01-05T05:25:22.263Z,22.70
2019-01-05T05:29:04.782Z,19.93
2019-01-05T05:32:33.154Z,19.60
2019-01-05T05:35:57.732Z,21.03
2019-01-05T05:39:37.800Z,19.43
2019-01-05T05:42:57.110Z,18.80
2019-01-05T05:46:30.680Z,14.60
2019-01-05T05:49:31.586Z,15.83
2019-01-05T05:52:59.493Z,16.47
2019-01-05T05:56:37.771Z,12.60
2019-01-05T06:00:18.376Z,16.77
2019-01-05T06:04:00.868Z,22.87
2019-01-05T06:07:24.105Z,24.97
2019-01-05T06:11:17.253Z,33.90
2019-01-05T06:14:45.210Z,29.10
2019-01-05T06:18:22.977Z,25.37
2019-01-05T06:21:55.189Z,26.87
2019-01-05T06:25:32.724Z,19.50
2019-01-05T06:29:08.907Z,23.73
2019-01-05T06:32:31.571Z,19.17
2019-01-05T06:35:49.344Z,22.03
2019-01-05T06:39:10.470Z,21.90
2019-01-05T06:42:35.922Z,14.87
2019-01-05T06:46:15.700Z,15.07
2019-01-05T06:49:37.728Z,15.63
2019-01-05T06:52:53.282Z,11.17
2019-01-05T06:56:51.015Z,8.73
2019-01-05T07:00:36.856Z,12.23
2019-01-05T07:03:57.092Z,10.20
2019-01-05T07:07:11.192Z,9.37
2019-01-05T07:10:24.120Z,10.23
2019-01-05T07:14:04.548Z,10.73
2019-01-05T07:17:37.510Z,10.47
2019-01-05T07:21:11.679Z,10.20
2019-01-05T07:24:48.634Z,10.77
2019-01-05T07:28:32.200Z,9.43
2019-01-05T07:32:22.806Z,11.80
2019-01-05T07:35:59.146Z,13.53
2019-01-05T07:39:41.476Z,10.77
2019-01-05T07:43:09.826Z,12.27
2019-01-05T07:46:29.059Z,14.20
2019-01-05T07:50:08.702Z,13.37
2019-01-05T07:53:23.426Z,14.37
2019-01-05T07:56:54.525Z,29.13
2019-01-05T08:00:23.646Z,19.20
2019-01-05T08:03:47.350Z,23.60
2019-01-05T08:07:36.890Z,22.23
2019-01-05T08:11:01.012Z,24.20
2019-01-05T08:14:38.489Z,24.77
2019-01-05T08:18:14.594Z,25.97
2019-01-05T08:21:56.279Z,21.50
2019-01-05T08:25:18.677Z,20.20
2019-01-05T08:28:53.741Z,26.77
2019-01-05T08:31:59.882Z,30.23
2019-01-05T08:35:15.684Z,30.07
2019-01-05T08:38:32.145Z,25.53
2019-01-05T08:41:36.474Z,29.67
2019-01-05T08:45:07.423Z,25.47
2019-01-05T08:48:17.208Z,25.60
2019-01-05T08:51:44.759Z,27.13
2019-01-05T08:55:19.221Z,27.97
2019-01-05T08:58:56.147Z,27.90
2019-01-05T09:02:23.691Z,29.17
2019-01-05T09:05:41.597Z,26.33
2019-01-05T09:09:00.712Z,28.87
2019-01-05T09:12:43.361Z,37.67
2019-01-05T09:16:21.117Z,33.37
2019-01-05T09:20:23.789Z,33.60
2019-01-05T09:23:46.858Z,28.77
2019-01-05T09:27:20.759Z,20.63
2019-01-05T09:30:49.646Z,14.27
2019-01-05T09:34:27.370Z,16.07
2019-01-05T09:37:54.358Z,15.17
2019-01-05T09:41:25.118Z,15.80
2019-01-05T09:44:53.064Z,13.13
2019-01-05T09:48:32.487Z,13.43
2019-01-05T09:52:02.998Z,13.57
2019-01-05T09:55:14.602Z,14.67
2019-01-05T09:58:39.117Z,14.93
2019-01-05T10:02:15.760Z,17.83
2019-01-05T10:05:21.838Z,14.10
2019-01-05T10:08:56.724Z,14.63
2019-01-05T10:12:15.190Z,14.33
2019-01-05T10:15:43.396Z,14.57
2019-01-05T10:19:24.882Z,11.80
2019-01-05T10:22:48.778Z,10.47
2019-01-05T10:26:12.579Z,10.40
2019-01-05T10:29:35.832Z,10.03
2019-01-05T10:33:06.854Z,13.63
2019-01-05T10:36:35.561Z,11.00
2019-01-05T10:40:16.851Z,8.37
2019-01-05T10:43:53.580Z,11.40
2019-01-05T10:47:32.182Z,12.67
2019-01-05T10:51:28.844Z,9.73
2019-01-05T10:54:52.939Z,10.43
2019-01-05T10:58:15.774Z,8.23
2019-01-05T11:01:29.944Z,8.73
2019-01-05T11:05:05.379Z,10.40
2019-01-05T11:08:55.481Z,12.03
2019-01-05T11:12:09.369Z,14.67
2019-01-05T11:15:36.549Z,17.17
2019-01-05T11:19:11.364Z,11.43
2019-01-05T11:22:43.465Z,11.93
2019-01-05T11:26:17.085Z,11.33
2019-01-05T11:30:00.521Z,9.27
2019-01-05T11:33:14.335Z,11.83
2019-01-05T11:36:38.559Z,7.90
2019-01-05T11:40:02.670Z,6.70
2019-01-05T11:43:48.259Z,8.33
2019-01-05T11:47:27.975Z,14.37
2019-01-05T11:51:18.832Z,10.60
2019-01-05T11:54:57.661Z,12.50
2019-01-05T11:58:06.559Z,9.80
2019-01-05T12:01:56.809Z,9.03
2019-01-05T12:05:14.570Z,8.73
2019-01-05T12:08:36.244Z,10.40
2019-01-05T12:12:00.827Z,7.07
2019-01-05T12:15:37.677Z,8.40
2019-01-05T12:19:20.402Z,11.60
2019-01-05T12:22:48.982Z,7.73
2019-01-05T12:26:31.211Z,8.27
2019-01-05T12:30:04.240Z,7.13
2019-01-05T12:33:52.624Z,5.23
2019-01-05T12:37:19.554Z,11.87
2019-01-05T12:40:40.394Z,6.03
2019-01-05T12:44:26.959Z,7.13
2019-01-05T12:47:54.835Z,9.73
2019-01-05T12:51:37.569Z,7.77
2019-01-05T12:55:07.562Z,5.97
2019-01-05T12:58:48.061Z,6.27
2019-01-05T13:02:08.016Z,6.93
2019-01-05T13:05:32.130Z,10.40
2019-01-05T13:09:07.014Z,9.60
2019-01-05T13:12:47.237Z,10.03
2019-01-05T13:16:23.452Z,8.80
2019-01-05T13:19:42.968Z,9.27
2019-01-05T13:23:40.587Z,6.03
2019-01-05T13:27:04.865Z,5.03
2019-01-05T13:30:28.279Z,5.73
2019-01-05T13:34:08.401Z,8.23
2019-01-05T13:38:05.220Z,12.13
2019-01-05T13:41:22.802Z,8.87
2019-01-05T13:44:46.532Z,11.17
2019-01-05T13:48:35.737Z,9.53
2019-01-05T13:52:19.668Z,10.03
2019-01-05T13:55:20.488Z,10.83
2019-01-05T13:58:10.506Z,8.07
2019-01-05T14:01:01.946Z,8.17
2019-01-05T14:03:48.960Z,10.50
2019-01-05T14:06:37.931Z,6.17
2019-01-05T14:09:26.339Z,11.13
2019-01-05T14:12:26.940Z,9.00
2019-01-05T14:15:20.246Z,11.93
2019-01-05T14:18:09.694Z,10.30
2019-01-05T14:20:57.565Z,9.87
2019-01-05T14:23:51.804Z,9.13
2019-01-05T14:26:39.102Z,8.70
2019-01-05T14:29:20.479Z,9.83
2019-01-05T14:32:09.495Z,10.70
2019-01-05T14:34:56.760Z,5.07
2019-01-05T14:37:48.427Z,6.00
2019-01-05T14:40:42.850Z,8.23
2019-01-05T14:43:40.466Z,10.53
2019-01-05T14:46:21.729Z,11.50
2019-01-05T14:49:19.505Z,14.77
2019-01-05T14:52:17.117Z,11.83
2019-01-05T14:55:04.418Z,20.97
2019-01-05T14:57:56.565Z,20.70
2019-01-05T15:00:53.953Z,19.33
2019-01-05T15:03:40.808Z,18.67
2019-01-05T15:06:38.082Z,13.40
2019-01-05T15:09:27.240Z,15.23
2019-01-05T15:12:14.551Z,9.27
2019-01-05T15:15:02.943Z,5.97
2019-01-05T15:18:03.430Z,10.70
2019-01-05T15:20:50.597Z,8.67
2019-01-05T15:23:33.142Z,32.03
2019-01-05T15:26:33.875Z,11.40
2019-01-05T15:29:26.696Z,15.07
2019-01-05T15:32:15.057Z,15.53
2019-01-05T15:35:09.502Z,11.73
2019-01-05T15:37:57.882Z,11.37
2019-01-05T15:40:48.272Z,10.87
2019-01-05T15:43:48.997Z,19.17
2019-01-05T15:46:52.914Z,9.47
2019-01-05T15:49:59.269Z,6.77
2019-01-05T15:52:56.646Z,12.13
2019-01-05T15:55:54.124Z,8.50
2019-01-05T15:59:01.058Z,11.17
2019-01-05T16:01:48.017Z,10.17
2019-01-05T16:04:33.305Z,12.37
2019-01-05T16:07:20.695Z,17.23
2019-01-05T16:10:11.881Z,14.80
2019-01-05T16:12:59.166Z,11.80
2019-01-05T16:16:22.059Z,23.70
2019-01-05T16:19:08.776Z,18.53
2019-01-05T16:22:01.075Z,13.40
2019-01-05T16:25:07.701Z,111.93
2019-01-05T16:27:55.144Z,13.13
2019-01-05T16:30:55.906Z,7.60
2019-01-05T16:33:59.421Z,6.87
2019-01-05T16:36:50.817Z,7.37
2019-01-05T16:39:37.983Z,8.10
2019-01-05T16:42:38.695Z,6.77
2019-01-05T16:45:29.893Z,12.83
2019-01-05T16:48:17.994Z,12.53
2019-01-05T16:51:03.980Z,10.83
2019-01-05T16:53:51.245Z,9.03
2019-01-05T16:56:45.657Z,7.80
2019-01-05T16:59:52.041Z,6.77
2019-01-05T17:02:40.517Z,9.43
2019-01-05T17:05:27.534Z,9.73
2019-01-05T17:08:10.126Z,8.13
2019-01-05T17:10:58.316Z,7.90
2019-01-05T17:13:45.595Z,7.47
2019-01-05T17:16:32.687Z,6.10
2019-01-05T17:19:36.500Z,5.27
2019-01-05T17:22:19.177Z,5.33
2019-01-05T17:25:06.472Z,4.80
2019-01-05T17:28:13.320Z,6.53
2019-01-05T17:31:07.784Z,6.13
2019-01-05T17:34:02.084Z,5.40
2019-01-05T17:36:49.334Z,6.60
2019-01-05T17:39:43.832Z,6.20
2019-01-05T17:42:44.515Z,6.80
2019-01-05T17:45:38.528Z,7.53
2019-01-05T17:48:29.970Z,8.13
2019-01-05T17:51:30.558Z,8.57
2019-01-05T17:54:17.867Z,6.90
2019-01-05T17:57:24.613Z,9.80
2019-01-05T18:00:13.715Z,7.23
2019-01-05T18:03:00.769Z,6.90
2019-01-05T18:05:58.326Z,7.70
2019-01-05T18:08:45.567Z,5.83
2019-01-05T18:11:39.975Z,5.40
2019-01-05T18:14:31.087Z,7.33
2019-01-05T18:17:29.362Z,4.47
2019-01-05T18:20:15.637Z,5.80
2019-01-05T18:23:02.713Z,5.40
2019-01-05T18:25:51.105Z,8.57
2019-01-05T18:28:42.388Z,6.10
2019-01-05T18:31:46.054Z,6.40
2019-01-05T18:34:46.615Z,5.13
2019-01-05T18:37:34.966Z,6.80
2019-01-05T18:40:22.272Z,4.93
2019-01-05T18:43:19.697Z,6.93
2019-01-05T18:46:08.123Z,7.80
2019-01-05T18:48:55.124Z,7.20
2019-01-05T18:51:42.107Z,6.30
2019-01-05T18:54:42.653Z,6.50
2019-01-05T18:57:34.055Z,9.63
2019-01-05T19:00:22.571Z,15.53
2019-01-05T19:03:09.926Z,5.90
2019-01-05T19:05:57.389Z,12.57
2019-01-05T19:08:44.360Z,7.27
2019-01-05T19:11:36.289Z,8.23
2019-01-05T19:14:33.492Z,10.37
2019-01-05T19:17:34.165Z,12.60
2019-01-05T19:20:25.621Z,10.83
2019-01-05T19:23:12.874Z,8.73
2019-01-05T19:25:57.688Z,12.37
2019-01-05T19:28:55.348Z,9.70
2019-01-05T19:31:36.247Z,7.33
2019-01-05T19:34:20.618Z,13.67
2019-01-05T19:37:24.190Z,12.33
2019-01-05T19:40:27.887Z,10.77
2019-01-05T19:43:22.426Z,8.13
2019-01-05T19:46:23.160Z,9.93
2019-01-05T19:49:10.318Z,9.27
2019-01-05T19:51:57.526Z,12.27
2019-01-05T19:54:44.790Z,10.77
2019-01-05T19:57:36.306Z,9.87
2019-01-05T20:00:19.495Z,10.50
2019-01-05T20:03:06.700Z,14.30
2019-01-05T20:06:04.146Z,5.93
2019-01-05T20:08:52.538Z,8.37
2019-01-05T20:11:39.824Z,9.80
2019-01-05T20:14:37.436Z,6.97
2019-01-05T20:17:43.769Z,7.70
2019-01-05T20:20:36.696Z,7.53
2019-01-05T20:23:36.491Z,8.03
2019-01-05T20:26:24.594Z,11.17
2019-01-05T20:29:11.841Z,12.13
2019-01-05T20:32:18.312Z,14.83
2019-01-05T20:35:24.701Z,11.80
2019-01-05T20:38:13.098Z,27.00
2019-01-05T20:41:07.753Z,19.57
2019-01-05T20:43:55.022Z,15.37
2019-01-05T20:46:39.629Z,13.07
2019-01-05T20:49:46.663Z,11.20
2019-01-05T20:52:33.866Z,21.60
2019-01-05T20:55:34.520Z,12.37
2019-01-05T20:58:32.211Z,13.70
2019-01-05T21:01:23.876Z,27.93
2019-01-05T21:04:10.993Z,14.60
2019-01-05T21:06:58.104Z,20.37
2019-01-05T21:09:56.491Z,9.57
2019-01-05T21:12:43.620Z,16.13
2019-01-05T21:15:41.236Z,8.30
2019-01-05T21:18:28.431Z,11.63
2019-01-05T21:21:28.945Z,10.30
2019-01-05T21:24:23.240Z,13.87
2019-01-05T21:27:03.244Z,11.40
2019-01-05T21:30:01.071Z,11.97
2019-01-05T21:33:04.611Z,13.33
2019-01-05T21:36:08.149Z,18.37
2019-01-05T21:38:55.421Z,16.23
2019-01-05T21:41:46.973Z,12.43
2019-01-05T21:44:41.476Z,16.27
2019-01-05T21:47:35.734Z,11.53
2019-01-05T21:50:22.849Z,12.63
2019-01-05T21:53:20.381Z,8.43
2019-01-05T21:56:01.199Z,8.83
2019-01-05T21:59:06.283Z,11.83
2019-01-05T22:01:53.540Z,11.20
2019-01-05T22:04:50.059Z,21.77
2019-01-05T22:07:37.263Z,13.27
2019-01-05T22:10:27.457Z,10.37
2019-01-05T22:13:21.965Z,7.97
2019-01-05T22:16:09.294Z,9.30
2019-01-05T22:19:15.853Z,5.87
2019-01-05T22:22:03.107Z,8.13
2019-01-05T22:25:02.563Z,63.10
2019-01-05T22:28:00.067Z,11.37
2019-01-05T22:30:48.513Z,7.67
2019-01-05T22:33:36.895Z,7.93
2019-01-05T22:36:25.313Z,8.40
2019-01-05T22:39:12.792Z,7.77
2019-01-05T22:42:19.349Z,4.93
2019-01-05T22:45:07.730Z,7.83
2019-01-05T22:47:54.834Z,8.60
2019-01-05T22:50:41.787Z,7.97
2019-01-05T22:53:39.560Z,8.00
2019-01-05T22:56:30.764Z,9.43
2019-01-05T22:59:17.945Z,8.80
2019-01-05T23:02:06.374Z,13.60
2019-01-05T23:04:54.817Z,12.87
2019-01-05T23:07:42.150Z,13.00
2019-01-05T23:10:33.465Z,7.20
2019-01-05T23:13:21.876Z,8.27
2019-01-05T23:16:08.974Z,9.87
2019-01-05T23:18:56.030Z,12.47
2019-01-05T23:21:44.533Z,10.50
2019-01-05T23:24:36.156Z,10.60
2019-01-05T23:27:23.393Z,12.47
2019-01-05T23:30:10.612Z,12.47
2019-01-05T23:32:52.521Z,9.53
2019-01-05T23:35:58.845Z,6.90
2019-01-05T23:38:50.411Z,7.73
2019-01-05T23:41:34.689Z,7.87
2019-01-05T23:44:26.182Z,9.40
2019-01-05T23:47:13.578Z,8.90
2019-01-05T23:50:00.618Z,76.67
2019-01-05T23:52:47.885Z,13.53
2019-01-05T23:55:39.264Z,15.90
2019-01-05T23:58:54.890Z,9.77
